Blaine, WA

1:36 AM PST on February 25, 2017 (GMT -0800)
Birch Bay - Near C Shop | | Change Station
Active Advisory: Special Statement

Elev 14 ft 48.92 °N, 122.74 °W | Updated 41 seconds ago

Clear
Clear
26.1 °F
Feels Like 26 °F
N
0.0
Wind Variable Wind from ENE

Today
High -- | Low -- °F
--% Chance of Precip.
Yesterday
High -- | Low -- °F
Precip. -- in
Pressure 30.30 in
Visibility 6.0 miles
Clouds Clear
Windchill 26 °F
Dew Point 24 °F
Humidity 95%
Rainfall 0.00 in
Snow Depth Not available.
6:59 AM 5:48 PM
Waning Crescent, 2% visible
METAR KBLI 250853Z AUTO 00000KT 6SM BR CLR M02/M03 A3026 RMK AO2 SLP258 I1000 I3000 T10171028 53004
Pressure 30.30 in
Visibility 6.0 miles
Clouds Clear
Windchill 26 °F
Dew Point 24 °F
Humidity 95%
Rainfall 0.00 in
Snow Depth Not available.
6:59 AM 5:48 PM
Waning Crescent, 2% visible
METAR KBLI 250853Z AUTO 00000KT 6SM BR CLR M02/M03 A3026 RMK AO2 SLP258 I1000 I3000 T10171028 53004

Get Your Daily Forecast Email!

Thanks for signing up!

Be on the lookout for a verification email in your inbox.

You'll start receiving the daily forecast at 8 AM.

×

10-Day Weather Forecast

Almanac

Astronomy

Feb. 25, 2017 Rise Set
Actual Time
Civil Twilight
Nautical Twilight
Astronomical Twilight
Moon
Length of Visible Light
Length of Day
Tomorrow will be .
, % of the Moon is Illuminated

Today's Extremes

State Highs State Lows

Community

WunderPhotos

Upload Photos

1,962,540 photos uploaded!

WunderBlog® & News

Nearby

Air Quality

  Air Quality AQ Index Pollutant
Not available.

Snow Depth

Station Depth Elevation

Earthquake Activity

City Distance Mag. Time & Date
Minimum magnitude displayed is 2.5.

Coastal Water Temperatures

Place Temperature

Stations

Nearby Weather Stations

Station Location Temp. Windchill Dew Point Humidity Wind Precip. Elev Updated Type
                   

Watches & Warnings

Special Statement
Issued: 4:01 PM PST Feb. 24, 2017 – National Weather Service

... Lowland snow showers are possible Saturday night into Sunday
morning...

Lowland snow is possible as another system moves through the area
Saturday night and Sunday morning, producing showers. Up to 2 inches
of snow accumulation is possible at areas above 300-500 feet, mainly
north and east of Seattle. The potential for more widespread snow
accumulations exists if model solutions change slightly. Stay tuned
to weather.Gov/Seattle for the latest updates.

Jsmith


Www.Weather.Gov/Seattle

401 PM PST Fri Feb 24 2017

... Lowland snow showers are possible Saturday night into Sunday
morning...

Lowland snow is possible as another system moves through the area
Saturday night and Sunday morning, producing showers. Up to 2 inches
of snow accumulation is possible at areas above 300-500 feet, mainly
north and east of Seattle. The potential for more widespread snow
accumulations exists if model solutions change slightly. Stay tuned
to weather.Gov/Seattle for the latest updates.

Jsmith


Www.Weather.Gov/Seattle